Aérodrome :
LOGIN :

S'inscrire | Disclaimer

   EN    FR    IT 

 










Légende :    VFR   VFR Marginal   IFR   IFR Intensif   IFR Très Intensif
Visi : 
Plafond : 
>= 8 km
>= 3000ft
5 à 8 km
1000 à 3000 ft
1500m à 5 km
500 à 1000 ft
800 à 1500m
200 à 500 ft
< 800m
< 200 ft
Symboles :   Orages  Brouillard  Fortes neiges  Fortes précipitations  Vent > 20 kt
SIGMETs :   Divers  Orages  Givrage  Turbulence  Onde Orograph.  Cendres Volcan.






- Altitude de l'aérodrome : 162 ft
- Code IATA : BOD


LFBD - Bordeaux / Merignac

DERNIER METAR :
  • 250030Z AUTO 29004KT 9999 BKN044 BKN054 12/10 Q1015 NOSIG

METARs EXPIRÉS :
  • 242330Z AUTO 27003KT 9999 1400 R23/P2300 R05/1800D R29/P2300 ///TCU 12/10 Q1015 BECMG BKN030
  • 242300Z AUTO 27003KT CAVOK 12/10 Q1015 TEMPO 4000 SHRA BKN020TCU
  • 242230Z AUTO 25003KT 220V290 9999 FEW047 13/10 Q1015 TEMPO 4000 SHRA BKN020TCU

TAF TAF LFBD
Valide du 25 à 00h jusqu'au 26 à 06h UTC


242300Z 2500/2606 30008KT 9999 FEW045 TX22/2514Z TN09/2605Z
PROB40
TEMPO 2503/2508 1100 MIFG
PROB30
TEMPO 2512/2519 SHRA BKN030TCU
PROB40
TEMPO 2602/2606 2000 BR
ATIS : +33 5 57 92 81 04



MET'MAP, la Météo Aéronautique d'un coup d'oeil ! - Copyright ORBIFLY Décembre 2007 - Disclaimer

ORBIFLY MET'MAP TEAM :

Programmation & Développement : Alexandra Zaïnal
Sur une idée originale de : Baudouin d'Aumeries
Soutien technique & logistique : Manuel Goepfert
Assistance : Marc-Olivier Méhu




SOURCES & CREDITS :

   NOAA